HTAR

Arusha Airport

Airport
ICAO code
HTAR
IATA Code
ARK
Summary
ICAO Region
AFI
ICAO Territory
Location

Arusha, Arusha Region

Serving
Arusha
Elevation
4550 ft
Coordinates
3° 22' 0" S , 36° 37' 19" E
KCC
Cwb
Metar
Observation
HTAR 152000Z 10010KT 9999 SCT026 17/13 Q1022 NOSIG
Station
Arusha
Date/Time
2022-08-15 20:00:00
Wind direction
100°
Wind speed
10 kts
Lowest cloud amount
scattered clouds
Temperature
17°C
Dew point
13°C
Humidity
77%
QNH
1022 hPa
Weather condition
n/a

Arusha Airport is an airport serving Arusha, the capital of the Arusha Region of Tanzania.

Climatology

Subtropical highland climate (Köppen climate classification Cwb)

Runways

Designator Length Width Surface Rops
9/27 1639 32 BIT No/No

Airport map

Aerial View

SKYbrary Partners:

Safety knowledge contributed by: